PWSweather.com
Personal Weather Stations
Station Observations
KILMORRI1
Goose Lake, Morris, IL 60450

Goose LakeMorris, IL 60450

Lat: 41.34, Lon: -88.3

Elevation: 523

Station Type:

www.gooselakeweather.com

High Low Average
Temperature 17.0°F-8.3°C 4.2°F-15.4°C 10.4°F-12.0°C
Dew Point 4.2°F-15.4°C -1.4°F-18.6°C 1.5°F-16.9°C
Winds 10.4 mph 16.7 kmh Calm Calm 5.0 mph NW8.0 kmh NW
Wind Gusts 17.3 mph27.8 kmh -- 7.0 mph11.3 kmh
Humidity 85% 49% 68%
Pressure 30.71 in1040.0 mb 30.47 in1031.8 mb -
Precipitation 0.00 in0.0 mm - -
Hour Temp Dew Point Humidity Winds Wind Gusts Pressure Precip Precip Rate Daily Precip Total
12:00 AM 15.8°F-9.0°C 4.4°F-15.3°C 60% 10.4 mph NNW16.7 kmh NNW 15.0 mph24.1 kmh 30.44 in1030.8 mb - 0.00 in0.0 mm 0.00 in0.0 mm
12:10 AM 15.8°F-9.0°C 3.6°F-15.8°C 58% 9.2 mph NNW14.8 kmh NNW 11.5 mph18.5 kmh 30.45 in1031.2 mb - 0.00 in0.0 mm 0.00 in0.0 mm
12:20 AM 15.6°F-9.1°C 3.1°F-16.1°C 57% 10.4 mph NNW16.7 kmh NNW 17.3 mph27.8 kmh 30.45 in1031.2 mb - 0.00 in0.0 mm 0.00 in0.0 mm
12:30 AM 15.3°F-9.3°C 2.8°F-16.2°C 57% 10.4 mph NNW16.7 kmh NNW 17.3 mph27.8 kmh 30.45 in1031.2 mb - 0.00 in0.0 mm 0.00 in0.0 mm
12:40 AM 15.2°F-9.3°C 3.0°F-16.1°C 58% 9.2 mph NNW14.8 kmh NNW 12.7 mph20.4 kmh 30.46 in1031.5 mb - 0.00 in0.0 mm 0.00 in0.0 mm
12:50 AM 14.8°F-9.6°C 3.1°F-16.1°C 59% 8.1 mph NNW13.0 kmh NNW 13.8 mph22.2 kmh 30.46 in1031.5 mb - 0.00 in0.0 mm 0.00 in0.0 mm
01:00 AM 14.6°F-9.7°C 2.8°F-16.2°C 59% 6.9 mph NNW11.1 kmh NNW 13.8 mph22.2 kmh 30.47 in1031.8 mb - 0.00 in0.0 mm 0.00 in0.0 mm
01:10 AM 14.1°F-9.9°C 3.1°F-16.1°C 61% 8.1 mph N13.0 kmh N 11.5 mph18.5 kmh 30.47 in1031.8 mb - 0.00 in0.0 mm 0.00 in0.0 mm
01:20 AM 14.0°F-10.0°C 3.7°F-15.7°C 63% 8.1 mph NNW13.0 kmh NNW 16.1 mph25.9 kmh 30.47 in1031.8 mb - 0.00 in0.0 mm 0.00 in0.0 mm
01:30 AM 13.9°F-10.1°C 3.6°F-15.8°C 63% 9.2 mph NNW14.8 kmh NNW 13.8 mph22.2 kmh 30.47 in1031.8 mb - 0.00 in0.0 mm 0.00 in0.0 mm
01:40 AM 13.9°F-10.1°C 3.6°F-15.8°C 63% 6.9 mph NNW11.1 kmh NNW 13.8 mph22.2 kmh 30.48 in1032.2 mb - 0.00 in0.0 mm 0.00 in0.0 mm
01:50 AM 13.5°F-10.3°C 3.6°F-15.8°C 64% 5.8 mph NW9.3 kmh NW 11.5 mph18.5 kmh 30.48 in1032.2 mb - 0.00 in0.0 mm 0.00 in0.0 mm
02:00 AM 13.3°F-10.4°C 3.4°F-15.9°C 64% 9.2 mph NNW14.8 kmh NNW 16.1 mph25.9 kmh 30.49 in1032.5 mb - 0.00 in0.0 mm 0.00 in0.0 mm
02:10 AM 13.1°F-10.5°C 3.2°F-16.0°C 64% 8.1 mph NNW13.0 kmh NNW 11.5 mph18.5 kmh 30.49 in1032.5 mb - 0.00 in0.0 mm 0.00 in0.0 mm
02:20 AM 12.9°F-10.6°C 3.7°F-15.7°C 66% 8.1 mph NW13.0 kmh NW 12.7 mph20.4 kmh 30.50 in1032.8 mb - 0.00 in0.0 mm 0.00 in0.0 mm
02:30 AM 12.5°F-10.8°C 3.9°F-15.6°C 68% 5.8 mph NW9.3 kmh NW 9.2 mph14.8 kmh 30.50 in1032.8 mb - 0.00 in0.0 mm 0.00 in0.0 mm
02:40 AM 12.4°F-10.9°C 3.8°F-15.7°C 68% 9.2 mph NNW14.8 kmh NNW 11.5 mph18.5 kmh 30.50 in1032.8 mb - 0.00 in0.0 mm 0.00 in0.0 mm
02:50 AM 12.3°F-10.9°C 4.1°F-15.5°C 69% 5.8 mph NNW9.3 kmh NNW 10.4 mph16.7 kmh 30.50 in1032.8 mb - 0.00 in0.0 mm 0.00 in0.0 mm
03:00 AM 12.0°F-11.1°C 4.1°F-15.5°C 70% 10.4 mph NW16.7 kmh NW 15.0 mph24.1 kmh 30.51 in1033.2 mb - 0.00 in0.0 mm 0.00 in0.0 mm
03:10 AM 11.9°F-11.2°C 4.0°F-15.6°C 70% 8.1 mph NNW13.0 kmh NNW 13.8 mph22.2 kmh 30.51 in1033.2 mb - 0.00 in0.0 mm 0.00 in0.0 mm
03:20 AM 11.8°F-11.2°C 3.9°F-15.6°C 70% 9.2 mph NNW14.8 kmh NNW 17.3 mph27.8 kmh 30.52 in1033.5 mb - 0.00 in0.0 mm 0.00 in0.0 mm
03:30 AM 11.5°F-11.4°C 4.2°F-15.4°C 72% 6.9 mph NW11.1 kmh NW 9.2 mph14.8 kmh 30.52 in1033.5 mb - 0.00 in0.0 mm 0.00 in0.0 mm
03:40 AM 11.2°F-11.6°C 3.9°F-15.6°C 72% 10.4 mph NW16.7 kmh NW 12.7 mph20.4 kmh 30.52 in1033.5 mb - 0.00 in0.0 mm 0.00 in0.0 mm
03:50 AM 11.1°F-11.6°C 3.8°F-15.7°C 72% 5.8 mph NNW9.3 kmh NNW 8.1 mph13.0 kmh 30.53 in1033.9 mb - 0.00 in0.0 mm 0.00 in0.0 mm
04:00 AM 10.8°F-11.8°C 3.6°F-15.8°C 72% 8.1 mph NNW13.0 kmh NNW 12.7 mph20.4 kmh 30.53 in1033.9 mb - 0.00 in0.0 mm 0.00 in0.0 mm
04:10 AM 10.7°F-11.8°C 3.7°F-15.7°C 73% 6.9 mph NW11.1 kmh NW 11.5 mph18.5 kmh 30.53 in1033.9 mb - 0.00 in0.0 mm 0.00 in0.0 mm
04:20 AM 10.3°F-12.1°C 3.9°F-15.6°C 75% 5.8 mph NW9.3 kmh NW 10.4 mph16.7 kmh 30.54 in1034.2 mb - 0.00 in0.0 mm 0.00 in0.0 mm
04:30 AM 9.7°F-12.4°C 3.7°F-15.7°C 76% 8.1 mph NW13.0 kmh NW 11.5 mph18.5 kmh 30.54 in1034.2 mb - 0.00 in0.0 mm 0.00 in0.0 mm
04:40 AM 9.4°F-12.6°C 3.4°F-15.9°C 76% 8.1 mph NW13.0 kmh NW 11.5 mph18.5 kmh 30.54 in1034.2 mb - 0.00 in0.0 mm 0.00 in0.0 mm
04:50 AM 9.2°F-12.7°C 3.2°F-16.0°C 76% 5.8 mph NW9.3 kmh NW 10.4 mph16.7 kmh 30.54 in1034.2 mb - 0.00 in0.0 mm 0.00 in0.0 mm
05:00 AM 9.0°F-12.8°C 3.0°F-16.1°C 76% 6.9 mph NW11.1 kmh NW 11.5 mph18.5 kmh 30.54 in1034.2 mb - 0.00 in0.0 mm 0.00 in0.0 mm
05:10 AM 8.8°F-12.9°C 2.8°F-16.2°C 76% 6.9 mph NW11.1 kmh NW 9.2 mph14.8 kmh 30.55 in1034.5 mb - 0.00 in0.0 mm 0.00 in0.0 mm
05:20 AM 8.6°F-13.0°C 2.6°F-16.3°C 76% 6.9 mph NW11.1 kmh NW 15.0 mph24.1 kmh 30.55 in1034.5 mb - 0.00 in0.0 mm 0.00 in0.0 mm
05:30 AM 8.5°F-13.1°C 2.2°F-16.6°C 75% 6.9 mph NW11.1 kmh NW 9.2 mph14.8 kmh 30.55 in1034.5 mb - 0.00 in0.0 mm 0.00 in0.0 mm
05:40 AM 8.1°F-13.3°C 2.1°F-16.6°C 76% 6.9 mph NW11.1 kmh NW 10.4 mph16.7 kmh 30.56 in1034.9 mb - 0.00 in0.0 mm 0.00 in0.0 mm
05:50 AM 7.9°F-13.4°C 1.9°F-16.7°C 76% 6.9 mph NW11.1 kmh NW 8.1 mph13.0 kmh 30.56 in1034.9 mb - 0.00 in0.0 mm 0.00 in0.0 mm
06:00 AM 7.7°F-13.5°C 1.4°F-17.0°C 75% 6.9 mph NW11.1 kmh NW 11.5 mph18.5 kmh 30.56 in1034.9 mb - 0.00 in0.0 mm 0.00 in0.0 mm
06:10 AM 7.4°F-13.7°C 1.1°F-17.2°C 75% 6.9 mph NW11.1 kmh NW 10.4 mph16.7 kmh 30.57 in1035.2 mb - 0.00 in0.0 mm 0.00 in0.0 mm
06:20 AM 7.3°F-13.7°C 1.0°F-17.2°C 75% 8.1 mph NW13.0 kmh NW 11.5 mph18.5 kmh 30.57 in1035.2 mb - 0.00 in0.0 mm 0.00 in0.0 mm
06:30 AM 7.1°F-13.8°C 0.8°F-17.3°C 75% 5.8 mph NW9.3 kmh NW 8.1 mph13.0 kmh 30.57 in1035.2 mb - 0.00 in0.0 mm 0.00 in0.0 mm
06:40 AM 6.8°F-14.0°C 0.6°F-17.4°C 75% 5.8 mph NW9.3 kmh NW 11.5 mph18.5 kmh 30.58 in1035.6 mb - 0.00 in0.0 mm 0.00 in0.0 mm
06:50 AM 6.7°F-14.1°C 0.2°F-17.7°C 74% 6.9 mph NW11.1 kmh NW 9.2 mph14.8 kmh 30.58 in1035.6 mb - 0.00 in0.0 mm 0.00 in0.0 mm
07:00 AM 6.5°F-14.2°C 0.0°F-17.8°C 74% 5.8 mph NW9.3 kmh NW 9.2 mph14.8 kmh 30.58 in1035.6 mb - 0.00 in0.0 mm 0.00 in0.0 mm
07:10 AM 6.3°F-14.3°C -0.2°F-17.9°C 74% 3.5 mph NW5.6 kmh NW 5.8 mph9.3 kmh 30.58 in1035.6 mb - 0.00 in0.0 mm 0.00 in0.0 mm
07:20 AM 6.2°F-14.3°C -0.6°F-18.1°C 73% 5.8 mph NW9.3 kmh NW 8.1 mph13.0 kmh 30.59 in1035.9 mb - 0.00 in0.0 mm 0.00 in0.0 mm
07:30 AM 6.1°F-14.4°C -0.7°F-18.2°C 73% 4.6 mph NW7.4 kmh NW 8.1 mph13.0 kmh 30.59 in1035.9 mb - 0.00 in0.0 mm 0.00 in0.0 mm
07:40 AM 5.9°F-14.5°C -0.9°F-18.3°C 73% 4.6 mph NW7.4 kmh NW 8.1 mph13.0 kmh 30.60 in1036.2 mb - 0.00 in0.0 mm 0.00 in0.0 mm
07:50 AM 5.7°F-14.6°C -0.8°F-18.2°C 74% 4.6 mph NW7.4 kmh NW 5.8 mph9.3 kmh 30.61 in1036.6 mb - 0.00 in0.0 mm 0.00 in0.0 mm
08:00 AM 5.7°F-14.6°C -1.1°F-18.4°C 73% 3.5 mph NNW5.6 kmh NNW 5.8 mph9.3 kmh 30.61 in1036.6 mb - 0.00 in0.0 mm 0.00 in0.0 mm
08:10 AM 5.7°F-14.6°C -1.1°F-18.4°C 73% 4.6 mph NW7.4 kmh NW 6.9 mph11.1 kmh 30.61 in1036.6 mb - 0.00 in0.0 mm 0.00 in0.0 mm
08:20 AM 5.6°F-14.7°C -1.2°F-18.4°C 73% 6.9 mph NW11.1 kmh NW 10.4 mph16.7 kmh 30.62 in1036.9 mb - 0.00 in0.0 mm 0.00 in0.0 mm
08:30 AM 5.6°F-14.7°C -1.2°F-18.4°C 73% 5.8 mph NW9.3 kmh NW 8.1 mph13.0 kmh 30.62 in1036.9 mb - 0.00 in0.0 mm 0.00 in0.0 mm
08:40 AM 5.6°F-14.7°C -1.2°F-18.4°C 73% 6.9 mph NW11.1 kmh NW 9.2 mph14.8 kmh 30.63 in1037.3 mb - 0.00 in0.0 mm 0.00 in0.0 mm
08:50 AM 5.7°F-14.6°C -1.4°F-18.6°C 72% 5.8 mph NW9.3 kmh NW 6.9 mph11.1 kmh 30.63 in1037.3 mb - 0.00 in0.0 mm 0.00 in0.0 mm
09:00 AM 5.9°F-14.5°C -0.9°F-18.3°C 73% 9.2 mph NW14.8 kmh NW 11.5 mph18.5 kmh 30.63 in1037.3 mb - 0.00 in0.0 mm 0.00 in0.0 mm
09:10 AM 6.0°F-14.4°C -1.1°F-18.4°C 72% 6.9 mph WNW11.1 kmh WNW 9.2 mph14.8 kmh 30.64 in1037.6 mb - 0.00 in0.0 mm 0.00 in0.0 mm
09:20 AM 6.3°F-14.3°C -0.8°F-18.2°C 72% 6.9 mph NW11.1 kmh NW 11.5 mph18.5 kmh 30.64 in1037.6 mb - 0.00 in0.0 mm 0.00 in0.0 mm
09:30 AM 6.5°F-14.2°C -0.9°F-18.3°C 71% 5.8 mph NW9.3 kmh NW 9.2 mph14.8 kmh 30.64 in1037.6 mb - 0.00 in0.0 mm 0.00 in0.0 mm
09:40 AM 6.5°F-14.2°C -1.2°F-18.4°C 70% 4.6 mph WNW7.4 kmh WNW 6.9 mph11.1 kmh 30.64 in1037.6 mb - 0.00 in0.0 mm 0.00 in0.0 mm
09:50 AM 6.9°F-13.9°C -0.8°F-18.2°C 70% 8.1 mph NW13.0 kmh NW 9.2 mph14.8 kmh 30.65 in1037.9 mb - 0.00 in0.0 mm 0.00 in0.0 mm
10:00 AM 7.3°F-13.7°C -0.7°F-18.2°C 69% 9.2 mph NW14.8 kmh NW 12.7 mph20.4 kmh 30.65 in1037.9 mb - 0.00 in0.0 mm 0.00 in0.0 mm
10:10 AM 7.8°F-13.4°C -0.6°F-18.1°C 68% 5.8 mph NW9.3 kmh NW 6.9 mph11.1 kmh 30.65 in1037.9 mb - 0.00 in0.0 mm 0.00 in0.0 mm
10:20 AM 8.5°F-13.1°C -0.2°F-17.9°C 67% 4.6 mph NW7.4 kmh NW 9.2 mph14.8 kmh 30.66 in1038.3 mb - 0.00 in0.0 mm 0.00 in0.0 mm
10:30 AM 8.8°F-12.9°C 0.4°F-17.6°C 68% 6.9 mph NW11.1 kmh NW 10.4 mph16.7 kmh 30.66 in1038.3 mb - 0.00 in0.0 mm 0.00 in0.0 mm
10:40 AM 8.9°F-12.8°C 0.1°F-17.7°C 67% 6.9 mph WNW11.1 kmh WNW 9.2 mph14.8 kmh 30.66 in1038.3 mb - 0.00 in0.0 mm 0.00 in0.0 mm
10:50 AM 9.6°F-12.4°C 0.8°F-17.3°C 67% 5.8 mph WNW9.3 kmh WNW 6.9 mph11.1 kmh 30.66 in1038.3 mb - 0.00 in0.0 mm 0.00 in0.0 mm
11:00 AM 10.0°F-12.2°C 0.9°F-17.3°C 66% 5.8 mph NNW9.3 kmh NNW 8.1 mph13.0 kmh 30.66 in1038.3 mb - 0.00 in0.0 mm 0.00 in0.0 mm
11:10 AM 10.1°F-12.2°C 1.3°F-17.1°C 67% 3.5 mph WNW5.6 kmh WNW 8.1 mph13.0 kmh 30.67 in1038.6 mb - 0.00 in0.0 mm 0.00 in0.0 mm
11:20 AM 10.4°F-12.0°C 1.6°F-16.9°C 67% 5.8 mph WNW9.3 kmh WNW 8.1 mph13.0 kmh 30.67 in1038.6 mb - 0.00 in0.0 mm 0.00 in0.0 mm
11:30 AM 10.9°F-11.7°C 1.5°F-16.9°C 65% 4.6 mph NW7.4 kmh NW 5.8 mph9.3 kmh 30.67 in1038.6 mb - 0.00 in0.0 mm 0.00 in0.0 mm
11:40 AM 11.5°F-11.4°C 1.0°F-17.2°C 62% 5.8 mph NW9.3 kmh NW 9.2 mph14.8 kmh 30.67 in1038.6 mb - 0.00 in0.0 mm 0.00 in0.0 mm
11:50 AM 12.1°F-11.1°C 1.6°F-16.9°C 62% 5.8 mph NNW9.3 kmh NNW 10.4 mph16.7 kmh 30.67 in1038.6 mb - 0.00 in0.0 mm 0.00 in0.0 mm
12:00 PM 12.4°F-10.9°C 0.5°F-17.5°C 58% 5.8 mph NW9.3 kmh NW 5.8 mph9.3 kmh 30.66 in1038.3 mb - 0.00 in0.0 mm 0.00 in0.0 mm
12:10 PM 12.7°F-10.7°C 1.1°F-17.2°C 59% 4.6 mph W7.4 kmh W 6.9 mph11.1 kmh 30.66 in1038.3 mb - 0.00 in0.0 mm 0.00 in0.0 mm
12:20 PM 13.4°F-10.3°C 1.0°F-17.2°C 57% 5.8 mph WNW9.3 kmh WNW 11.5 mph18.5 kmh 30.65 in1037.9 mb - 0.00 in0.0 mm 0.00 in0.0 mm
12:30 PM 13.8°F-10.1°C 0.6°F-17.4°C 55% 5.8 mph W9.3 kmh W 10.4 mph16.7 kmh 30.65 in1037.9 mb - 0.00 in0.0 mm 0.00 in0.0 mm
12:40 PM 14.1°F-9.9°C 1.3°F-17.1°C 56% 3.5 mph WNW5.6 kmh WNW 6.9 mph11.1 kmh 30.65 in1037.9 mb - 0.00 in0.0 mm 0.00 in0.0 mm
12:50 PM 14.5°F-9.7°C 1.6°F-16.9°C 56% 5.8 mph NW9.3 kmh NW 10.4 mph16.7 kmh 30.65 in1037.9 mb - 0.00 in0.0 mm 0.00 in0.0 mm
01:00 PM 14.7°F-9.6°C 1.0°F-17.2°C 54% 4.6 mph NNW7.4 kmh NNW 6.9 mph11.1 kmh 30.64 in1037.6 mb - 0.00 in0.0 mm 0.00 in0.0 mm
01:10 PM 15.4°F-9.2°C 1.7°F-16.8°C 54% 5.8 mph NW9.3 kmh NW 8.1 mph13.0 kmh 30.64 in1037.6 mb - 0.00 in0.0 mm 0.00 in0.0 mm
01:20 PM 15.1°F-9.4°C 1.1°F-17.2°C 53% 6.9 mph NW11.1 kmh NW 11.5 mph18.5 kmh 30.64 in1037.6 mb - 0.00 in0.0 mm 0.00 in0.0 mm
01:30 PM 15.2°F-9.3°C 0.7°F-17.4°C 52% 5.8 mph W9.3 kmh W 8.1 mph13.0 kmh 30.64 in1037.6 mb - 0.00 in0.0 mm 0.00 in0.0 mm
01:40 PM 15.9°F-8.9°C 1.3°F-17.1°C 52% 6.9 mph NNW11.1 kmh NNW 9.2 mph14.8 kmh 30.63 in1037.3 mb - 0.00 in0.0 mm 0.00 in0.0 mm
01:50 PM 15.6°F-9.1°C 1.4°F-17.0°C 53% 5.8 mph NW9.3 kmh NW 11.5 mph18.5 kmh 30.63 in1037.3 mb - 0.00 in0.0 mm 0.00 in0.0 mm
02:00 PM 15.7°F-9.1°C 0.7°F-17.4°C 51% 6.9 mph NW11.1 kmh NW 12.7 mph20.4 kmh 30.64 in1037.6 mb - 0.00 in0.0 mm 0.00 in0.0 mm
02:10 PM 16.2°F-8.8°C 2.1°F-16.6°C 53% 5.8 mph WNW9.3 kmh WNW 11.5 mph18.5 kmh 30.64 in1037.6 mb - 0.00 in0.0 mm 0.00 in0.0 mm
02:20 PM 16.1°F-8.8°C 1.1°F-17.2°C 51% 4.6 mph NW7.4 kmh NW 13.8 mph22.2 kmh 30.64 in1037.6 mb - 0.00 in0.0 mm 0.00 in0.0 mm
02:30 PM 16.1°F-8.8°C 1.5°F-16.9°C 52% 4.6 mph NW7.4 kmh NW 6.9 mph11.1 kmh 30.64 in1037.6 mb - 0.00 in0.0 mm 0.00 in0.0 mm
02:40 PM 16.2°F-8.8°C 0.8°F-17.3°C 50% 5.8 mph NNW9.3 kmh NNW 5.8 mph9.3 kmh 30.64 in1037.6 mb - 0.00 in0.0 mm 0.00 in0.0 mm
02:50 PM 16.2°F-8.8°C 0.8°F-17.3°C 50% 6.9 mph NW11.1 kmh NW 8.1 mph13.0 kmh 30.64 in1037.6 mb - 0.00 in0.0 mm 0.00 in0.0 mm
03:00 PM 16.3°F-8.7°C 0.9°F-17.3°C 50% 4.6 mph NW7.4 kmh NW 11.5 mph18.5 kmh 30.64 in1037.6 mb - 0.00 in0.0 mm 0.00 in0.0 mm
03:10 PM 16.8°F-8.4°C 1.7°F-16.8°C 51% 4.6 mph W7.4 kmh W 5.8 mph9.3 kmh 30.64 in1037.6 mb - 0.00 in0.0 mm 0.00 in0.0 mm
03:20 PM 16.8°F-8.4°C 2.6°F-16.3°C 53% 4.6 mph W7.4 kmh W 4.6 mph7.4 kmh 30.63 in1037.3 mb - 0.00 in0.0 mm 0.00 in0.0 mm
03:30 PM 16.6°F-8.6°C 0.8°F-17.3°C 49% 4.6 mph WNW7.4 kmh WNW 5.8 mph9.3 kmh 30.64 in1037.6 mb - 0.00 in0.0 mm 0.00 in0.0 mm
03:40 PM 17.0°F-8.3°C 1.1°F-17.2°C 49% 4.6 mph NW7.4 kmh NW 8.1 mph13.0 kmh 30.64 in1037.6 mb - 0.00 in0.0 mm 0.00 in0.0 mm
03:50 PM 16.4°F-8.7°C 1.0°F-17.2°C 50% 4.6 mph NNW7.4 kmh NNW 8.1 mph13.0 kmh 30.64 in1037.6 mb - 0.00 in0.0 mm 0.00 in0.0 mm
04:00 PM 16.5°F-8.6°C 1.1°F-17.2°C 50% 4.6 mph NW7.4 kmh NW 8.1 mph13.0 kmh 30.64 in1037.6 mb - 0.00 in0.0 mm 0.00 in0.0 mm
04:10 PM 16.3°F-8.7°C 0.4°F-17.6°C 49% 5.8 mph NW9.3 kmh NW 11.5 mph18.5 kmh 30.65 in1037.9 mb - 0.00 in0.0 mm 0.00 in0.0 mm
04:20 PM 16.2°F-8.8°C 1.2°F-17.1°C 51% 5.8 mph NW9.3 kmh NW 8.1 mph13.0 kmh 30.65 in1037.9 mb - 0.00 in0.0 mm 0.00 in0.0 mm
04:30 PM 15.9°F-8.9°C 1.4°F-17.0°C 52% 4.6 mph NNW7.4 kmh NNW 5.8 mph9.3 kmh 30.64 in1037.6 mb - 0.00 in0.0 mm 0.00 in0.0 mm
04:40 PM 15.9°F-8.9°C 0.9°F-17.3°C 51% 4.6 mph NW7.4 kmh NW 4.6 mph7.4 kmh 30.64 in1037.6 mb - 0.00 in0.0 mm 0.00 in0.0 mm
04:50 PM 15.7°F-9.1°C 1.6°F-16.9°C 53% 4.6 mph NNW7.4 kmh NNW 8.1 mph13.0 kmh 30.64 in1037.6 mb - 0.00 in0.0 mm 0.00 in0.0 mm
05:00 PM 15.2°F-9.3°C 0.7°F-17.4°C 52% 3.5 mph NW5.6 kmh NW 6.9 mph11.1 kmh 30.65 in1037.9 mb - 0.00 in0.0 mm 0.00 in0.0 mm
05:10 PM 15.1°F-9.4°C 1.0°F-17.2°C 53% 3.5 mph NW5.6 kmh NW 4.6 mph7.4 kmh 30.65 in1037.9 mb - 0.00 in0.0 mm 0.00 in0.0 mm
05:20 PM 14.7°F-9.6°C 0.7°F-17.4°C 53% 3.5 mph NW5.6 kmh NW 3.5 mph5.6 kmh 30.66 in1038.3 mb - 0.00 in0.0 mm 0.00 in0.0 mm
05:30 PM 14.2°F-9.9°C 0.6°F-17.4°C 54% 4.6 mph NW7.4 kmh NW 5.8 mph9.3 kmh 30.66 in1038.3 mb - 0.00 in0.0 mm 0.00 in0.0 mm
05:40 PM 13.6°F-10.2°C 0.0°F-17.8°C 54% 3.5 mph NW5.6 kmh NW 4.6 mph7.4 kmh 30.66 in1038.3 mb - 0.00 in0.0 mm 0.00 in0.0 mm
05:50 PM 13.2°F-10.4°C 0.4°F-17.6°C 56% 4.6 mph NW7.4 kmh NW 4.6 mph7.4 kmh 30.66 in1038.3 mb - 0.00 in0.0 mm 0.00 in0.0 mm
06:00 PM 12.7°F-10.7°C 0.7°F-17.4°C 58% 2.3 mph NW3.7 kmh NW 3.5 mph5.6 kmh 30.66 in1038.3 mb - 0.00 in0.0 mm 0.00 in0.0 mm
06:10 PM 12.3°F-10.9°C 1.0°F-17.2°C 60% 3.5 mph NW5.6 kmh NW 3.5 mph5.6 kmh 30.66 in1038.3 mb - 0.00 in0.0 mm 0.00 in0.0 mm
06:20 PM 11.9°F-11.2°C 1.1°F-17.2°C 61% 2.3 mph NW3.7 kmh NW 3.5 mph5.6 kmh 30.67 in1038.6 mb - 0.00 in0.0 mm 0.00 in0.0 mm
06:30 PM 11.6°F-11.3°C 1.4°F-17.0°C 63% 2.3 mph NW3.7 kmh NW 3.5 mph5.6 kmh 30.67 in1038.6 mb - 0.00 in0.0 mm 0.00 in0.0 mm
06:40 PM 11.1°F-11.6°C 1.6°F-16.9°C 65% 2.3 mph NW3.7 kmh NW 3.5 mph5.6 kmh 30.67 in1038.6 mb - 0.00 in0.0 mm 0.00 in0.0 mm
06:50 PM 10.7°F-11.8°C 1.6°F-16.9°C 66% 1.2 mph NW1.9 kmh NW 2.3 mph3.7 kmh 30.67 in1038.6 mb - 0.00 in0.0 mm 0.00 in0.0 mm
07:00 PM 10.6°F-11.9°C 1.4°F-17.0°C 66% 1.2 mph NW1.9 kmh NW 3.5 mph5.6 kmh 30.67 in1038.6 mb - 0.00 in0.0 mm 0.00 in0.0 mm
07:10 PM 10.4°F-12.0°C 1.6°F-16.9°C 67% 1.2 mph WNW1.9 kmh WNW 2.3 mph3.7 kmh 30.68 in1038.9 mb - 0.00 in0.0 mm 0.00 in0.0 mm
07:20 PM 10.3°F-12.1°C 1.5°F-16.9°C 67% 1.2 mph NW1.9 kmh NW 1.2 mph1.9 kmh 30.68 in1038.9 mb - 0.00 in0.0 mm 0.00 in0.0 mm
07:30 PM 10.2°F-12.1°C 1.4°F-17.0°C 67% 1.2 mph NW1.9 kmh NW 2.3 mph3.7 kmh 30.68 in1038.9 mb - 0.00 in0.0 mm 0.00 in0.0 mm
07:40 PM 10.2°F-12.1°C 1.4°F-17.0°C 67% 1.2 mph NW1.9 kmh NW 1.2 mph1.9 kmh 30.68 in1038.9 mb - 0.00 in0.0 mm 0.00 in0.0 mm
07:50 PM 9.4°F-12.6°C 1.9°F-16.7°C 71% Calm Calm 1.2 mph1.9 kmh 30.68 in1038.9 mb - 0.00 in0.0 mm 0.00 in0.0 mm
08:00 PM 9.1°F-12.7°C 3.0°F-16.1°C 76% 1.2 mph NW1.9 kmh NW 1.2 mph1.9 kmh 30.68 in1038.9 mb - 0.00 in0.0 mm 0.00 in0.0 mm
08:10 PM 9.4°F-12.6°C 2.5°F-16.4°C 73% 1.2 mph WNW1.9 kmh WNW 2.3 mph3.7 kmh 30.68 in1038.9 mb - 0.00 in0.0 mm 0.00 in0.0 mm
08:20 PM 9.9°F-12.3°C 2.1°F-16.6°C 70% 1.2 mph WNW1.9 kmh WNW 1.2 mph1.9 kmh 30.68 in1038.9 mb - 0.00 in0.0 mm 0.00 in0.0 mm
08:30 PM 9.8°F-12.3°C 2.3°F-16.5°C 71% 1.2 mph WNW1.9 kmh WNW 2.3 mph3.7 kmh 30.69 in1039.3 mb - 0.00 in0.0 mm 0.00 in0.0 mm
08:40 PM 9.9°F-12.3°C 2.3°F-16.5°C 71% 1.2 mph WNW1.9 kmh WNW 3.5 mph5.6 kmh 30.69 in1039.3 mb - 0.00 in0.0 mm 0.00 in0.0 mm
08:50 PM 9.5°F-12.5°C 2.9°F-16.2°C 74% 1.2 mph WNW1.9 kmh WNW 1.2 mph1.9 kmh 30.69 in1039.3 mb - 0.00 in0.0 mm 0.00 in0.0 mm
09:00 PM 8.7°F-12.9°C 2.7°F-16.3°C 76% 1.2 mph WNW1.9 kmh WNW 2.3 mph3.7 kmh 30.69 in1039.3 mb - 0.00 in0.0 mm 0.00 in0.0 mm
09:10 PM 8.3°F-13.2°C 2.9°F-16.2°C 78% 1.2 mph WNW1.9 kmh WNW 2.3 mph3.7 kmh 30.69 in1039.3 mb - 0.00 in0.0 mm 0.00 in0.0 mm
09:20 PM 8.1°F-13.3°C 3.2°F-16.0°C 80% 1.2 mph WNW1.9 kmh WNW 1.2 mph1.9 kmh 30.69 in1039.3 mb - 0.00 in0.0 mm 0.00 in0.0 mm
09:30 PM 7.9°F-13.4°C 3.0°F-16.1°C 80% 1.2 mph WNW1.9 kmh WNW 2.3 mph3.7 kmh 30.69 in1039.3 mb - 0.00 in0.0 mm 0.00 in0.0 mm
09:40 PM 7.3°F-13.7°C 2.4°F-16.4°C 80% Calm Calm -- 30.70 in1039.6 mb - 0.00 in0.0 mm 0.00 in0.0 mm
09:50 PM 7.1°F-13.8°C 2.8°F-16.2°C 82% 1.2 mph WNW1.9 kmh WNW 2.3 mph3.7 kmh 30.69 in1039.3 mb - 0.00 in0.0 mm 0.00 in0.0 mm
10:00 PM 6.8°F-14.0°C 2.4°F-16.4°C 82% 1.2 mph WNW1.9 kmh WNW 1.2 mph1.9 kmh 30.69 in1039.3 mb - 0.00 in0.0 mm 0.00 in0.0 mm
10:10 PM 6.4°F-14.2°C 2.1°F-16.6°C 82% 1.2 mph WNW1.9 kmh WNW 1.2 mph1.9 kmh 30.69 in1039.3 mb - 0.00 in0.0 mm 0.00 in0.0 mm
10:20 PM 6.0°F-14.4°C 2.0°F-16.7°C 83% Calm Calm -- 30.69 in1039.3 mb - 0.00 in0.0 mm 0.00 in0.0 mm
10:30 PM 5.4°F-14.8°C 1.1°F-17.2°C 82% Calm Calm -- 30.69 in1039.3 mb - 0.00 in0.0 mm 0.00 in0.0 mm
10:40 PM 5.6°F-14.7°C 1.8°F-16.8°C 84% 1.2 mph WNW1.9 kmh WNW 2.3 mph3.7 kmh 30.69 in1039.3 mb - 0.00 in0.0 mm 0.00 in0.0 mm
10:50 PM 5.7°F-14.6°C 1.9°F-16.7°C 84% Calm Calm 1.2 mph1.9 kmh 30.70 in1039.6 mb - 0.00 in0.0 mm 0.00 in0.0 mm
11:00 PM 5.7°F-14.6°C 1.9°F-16.7°C 84% 1.2 mph WNW1.9 kmh WNW 1.2 mph1.9 kmh 30.70 in1039.6 mb - 0.00 in0.0 mm 0.00 in0.0 mm
11:10 PM 5.7°F-14.6°C 1.9°F-16.7°C 84% Calm Calm 1.2 mph1.9 kmh 30.70 in1039.6 mb - 0.00 in0.0 mm 0.00 in0.0 mm
11:20 PM 5.3°F-14.8°C 1.3°F-17.1°C 83% Calm Calm 1.2 mph1.9 kmh 30.70 in1039.6 mb - 0.00 in0.0 mm 0.00 in0.0 mm
11:30 PM 5.2°F-14.9°C 1.4°F-17.0°C 84% 1.2 mph WNW1.9 kmh WNW 2.3 mph3.7 kmh 30.70 in1039.6 mb - 0.00 in0.0 mm 0.00 in0.0 mm
11:40 PM 5.1°F-14.9°C 1.3°F-17.1°C 84% 1.2 mph WNW1.9 kmh WNW 1.2 mph1.9 kmh 30.70 in1039.6 mb - 0.00 in0.0 mm 0.00 in0.0 mm
11:50 PM 4.8°F-15.1°C 1.0°F-17.2°C 84% 1.2 mph WNW1.9 kmh WNW 2.3 mph3.7 kmh 30.70 in1039.6 mb - 0.00 in0.0 mm 0.00 in0.0 mm